sensor_id;sensor_type;location;lat;lon;timestamp;P1;durP1;ratioP1;P2;durP2;ratioP2
19016;SDS011;9641;51.494;6.670;2023-07-20T00:00:59;7.63;;;4.07;;
19016;SDS011;9641;51.494;6.670;2023-07-20T00:03:26;8.20;;;4.60;;
19016;SDS011;9641;51.494;6.670;2023-07-20T00:05:53;5.60;;;3.57;;
19016;SDS011;9641;51.494;6.670;2023-07-20T00:08:19;5.60;;;3.77;;
19016;SDS011;9641;51.494;6.670;2023-07-20T00:10:46;9.83;;;4.03;;
19016;SDS011;9641;51.494;6.670;2023-07-20T00:13:13;4.83;;;3.63;;
19016;SDS011;9641;51.494;6.670;2023-07-20T00:15:43;7.73;;;4.13;;
19016;SDS011;9641;51.494;6.670;2023-07-20T00:18:12;7.50;;;4.10;;
19016;SDS011;9641;51.494;6.670;2023-07-20T00:20:39;3.60;;;3.30;;
19016;SDS011;9641;51.494;6.670;2023-07-20T00:23:06;7.77;;;4.00;;
19016;SDS011;9641;51.494;6.670;2023-07-20T00:25:33;5.37;;;4.03;;
19016;SDS011;9641;51.494;6.670;2023-07-20T00:28:00;7.37;;;4.20;;
19016;SDS011;9641;51.494;6.670;2023-07-20T00:30:27;7.30;;;3.83;;
19016;SDS011;9641;51.494;6.670;2023-07-20T00:33:10;5.80;;;3.73;;
19016;SDS011;9641;51.494;6.670;2023-07-20T00:35:39;7.17;;;4.00;;
19016;SDS011;9641;51.494;6.670;2023-07-20T00:38:05;5.23;;;4.23;;
19016;SDS011;9641;51.494;6.670;2023-07-20T00:40:35;8.37;;;4.87;;
19016;SDS011;9641;51.494;6.670;2023-07-20T00:43:02;4.70;;;4.17;;
19016;SDS011;9641;51.494;6.670;2023-07-20T00:45:29;5.50;;;4.00;;
19016;SDS011;9641;51.494;6.670;2023-07-20T00:47:57;6.23;;;4.43;;
19016;SDS011;9641;51.494;6.670;2023-07-20T00:50:26;5.40;;;4.17;;
19016;SDS011;9641;51.494;6.670;2023-07-20T00:52:54;6.90;;;4.20;;
19016;SDS011;9641;51.494;6.670;2023-07-20T00:55:21;9.07;;;5.13;;
19016;SDS011;9641;51.494;6.670;2023-07-20T00:57:50;5.90;;;4.20;;
19016;SDS011;9641;51.494;6.670;2023-07-20T01:00:17;6.67;;;4.00;;
19016;SDS011;9641;51.494;6.670;2023-07-20T01:02:46;4.23;;;3.20;;
19016;SDS011;9641;51.494;6.670;2023-07-20T01:05:13;5.83;;;3.23;;
19016;SDS011;9641;51.494;6.670;2023-07-20T01:07:45;4.43;;;4.03;;
19016;SDS011;9641;51.494;6.670;2023-07-20T01:10:20;6.43;;;4.07;;
19016;SDS011;9641;51.494;6.670;2023-07-20T01:12:55;9.67;;;4.20;;
19016;SDS011;9641;51.494;6.670;2023-07-20T01:15:23;6.73;;;3.87;;
19016;SDS011;9641;51.494;6.670;2023-07-20T01:17:50;6.20;;;3.73;;
19016;SDS011;9641;51.494;6.670;2023-07-20T01:20:18;5.87;;;3.70;;
19016;SDS011;9641;51.494;6.670;2023-07-20T01:23:05;8.33;;;4.30;;
19016;SDS011;9641;51.494;6.670;2023-07-20T01:25:56;4.47;;;3.93;;
19016;SDS011;9641;51.494;6.670;2023-07-20T01:28:48;7.40;;;4.37;;
19016;SDS011;9641;51.494;6.670;2023-07-20T01:31:34;7.13;;;4.93;;
19016;SDS011;9641;51.494;6.670;2023-07-20T01:34:04;9.17;;;5.23;;
19016;SDS011;9641;51.494;6.670;2023-07-20T01:36:35;8.27;;;5.10;;
19016;SDS011;9641;51.494;6.670;2023-07-20T01:39:06;8.70;;;4.80;;
19016;SDS011;9641;51.494;6.670;2023-07-20T01:41:38;7.63;;;5.30;;
19016;SDS011;9641;51.494;6.670;2023-07-20T01:44:08;6.30;;;4.50;;
19016;SDS011;9641;51.494;6.670;2023-07-20T01:46:38;7.53;;;5.10;;
19016;SDS011;9641;51.494;6.670;2023-07-20T01:49:04;7.57;;;5.03;;
19016;SDS011;9641;51.494;6.670;2023-07-20T01:51:31;7.97;;;4.90;;
19016;SDS011;9641;51.494;6.670;2023-07-20T01:53:58;7.13;;;5.30;;
19016;SDS011;9641;51.494;6.670;2023-07-20T01:56:25;7.57;;;5.40;;
19016;SDS011;9641;51.494;6.670;2023-07-20T01:58:52;7.27;;;5.20;;
19016;SDS011;9641;51.494;6.670;2023-07-20T02:01:19;9.27;;;6.33;;
19016;SDS011;9641;51.494;6.670;2023-07-20T02:03:50;8.33;;;5.93;;
19016;SDS011;9641;51.494;6.670;2023-07-20T02:06:18;9.33;;;6.60;;
19016;SDS011;9641;51.494;6.670;2023-07-20T02:08:47;7.27;;;6.23;;
19016;SDS011;9641;51.494;6.670;2023-07-20T02:11:14;13.60;;;6.97;;
19016;SDS011;9641;51.494;6.670;2023-07-20T02:13:41;10.77;;;6.60;;
19016;SDS011;9641;51.494;6.670;2023-07-20T02:16:08;13.80;;;6.90;;
19016;SDS011;9641;51.494;6.670;2023-07-20T02:18:36;10.00;;;6.53;;
19016;SDS011;9641;51.494;6.670;2023-07-20T02:21:04;9.80;;;6.40;;
19016;SDS011;9641;51.494;6.670;2023-07-20T02:23:31;9.30;;;5.90;;
19016;SDS011;9641;51.494;6.670;2023-07-20T02:25:59;9.47;;;5.60;;
19016;SDS011;9641;51.494;6.670;2023-07-20T02:28:26;10.20;;;6.20;;
19016;SDS011;9641;51.494;6.670;2023-07-20T02:30:54;9.60;;;6.20;;
19016;SDS011;9641;51.494;6.670;2023-07-20T02:33:25;9.93;;;6.17;;
19016;SDS011;9641;51.494;6.670;2023-07-20T02:35:52;11.83;;;7.33;;
19016;SDS011;9641;51.494;6.670;2023-07-20T02:38:20;11.13;;;7.67;;
19016;SDS011;9641;51.494;6.670;2023-07-20T02:40:47;10.73;;;8.10;;
19016;SDS011;9641;51.494;6.670;2023-07-20T02:43:14;11.03;;;7.73;;
19016;SDS011;9641;51.494;6.670;2023-07-20T02:45:41;10.70;;;7.87;;
19016;SDS011;9641;51.494;6.670;2023-07-20T02:48:08;10.80;;;7.33;;
19016;SDS011;9641;51.494;6.670;2023-07-20T02:50:35;11.20;;;7.10;;
19016;SDS011;9641;51.494;6.670;2023-07-20T02:53:02;8.73;;;7.10;;
19016;SDS011;9641;51.494;6.670;2023-07-20T02:55:30;13.43;;;7.87;;
19016;SDS011;9641;51.494;6.670;2023-07-20T02:57:57;9.77;;;7.43;;
19016;SDS011;9641;51.494;6.670;2023-07-20T03:00:24;10.37;;;7.53;;
19016;SDS011;9641;51.494;6.670;2023-07-20T03:02:51;11.50;;;8.00;;
19016;SDS011;9641;51.494;6.670;2023-07-20T03:05:20;13.67;;;8.20;;
19016;SDS011;9641;51.494;6.670;2023-07-20T03:07:48;10.13;;;7.60;;
19016;SDS011;9641;51.494;6.670;2023-07-20T03:10:15;14.87;;;8.53;;
19016;SDS011;9641;51.494;6.670;2023-07-20T03:12:44;11.87;;;8.67;;
19016;SDS011;9641;51.494;6.670;2023-07-20T03:15:11;12.67;;;8.70;;
19016;SDS011;9641;51.494;6.670;2023-07-20T03:17:38;12.00;;;8.90;;
19016;SDS011;9641;51.494;6.670;2023-07-20T03:20:06;10.70;;;8.70;;
19016;SDS011;9641;51.494;6.670;2023-07-20T03:22:35;12.87;;;8.33;;
19016;SDS011;9641;51.494;6.670;2023-07-20T03:25:03;11.70;;;8.60;;
19016;SDS011;9641;51.494;6.670;2023-07-20T03:27:30;15.83;;;10.23;;
19016;SDS011;9641;51.494;6.670;2023-07-20T03:30:00;15.53;;;9.63;;
19016;SDS011;9641;51.494;6.670;2023-07-20T03:32:28;17.50;;;10.27;;
19016;SDS011;9641;51.494;6.670;2023-07-20T03:34:54;11.40;;;9.00;;
19016;SDS011;9641;51.494;6.670;2023-07-20T03:37:21;14.63;;;9.53;;
19016;SDS011;9641;51.494;6.670;2023-07-20T03:39:48;15.47;;;9.87;;
19016;SDS011;9641;51.494;6.670;2023-07-20T03:42:15;13.27;;;10.17;;
19016;SDS011;9641;51.494;6.670;2023-07-20T03:44:42;13.67;;;10.43;;
19016;SDS011;9641;51.494;6.670;2023-07-20T03:47:11;15.07;;;11.17;;
19016;SDS011;9641;51.494;6.670;2023-07-20T03:49:38;19.40;;;13.33;;
19016;SDS011;9641;51.494;6.670;2023-07-20T03:52:05;15.60;;;11.90;;
19016;SDS011;9641;51.494;6.670;2023-07-20T03:54:32;16.63;;;11.97;;
19016;SDS011;9641;51.494;6.670;2023-07-20T03:56:59;18.40;;;12.13;;
19016;SDS011;9641;51.494;6.670;2023-07-20T03:59:26;17.23;;;13.27;;
19016;SDS011;9641;51.494;6.670;2023-07-20T04:01:53;19.17;;;14.40;;
19016;SDS011;9641;51.494;6.670;2023-07-20T04:04:22;16.43;;;12.43;;
19016;SDS011;9641;51.494;6.670;2023-07-20T04:06:49;17.60;;;13.13;;
19016;SDS011;9641;51.494;6.670;2023-07-20T04:09:16;17.93;;;12.90;;
19016;SDS011;9641;51.494;6.670;2023-07-20T04:11:42;19.63;;;13.67;;
19016;SDS011;9641;51.494;6.670;2023-07-20T04:14:09;16.27;;;12.10;;
19016;SDS011;9641;51.494;6.670;2023-07-20T04:16:36;22.70;;;15.17;;
19016;SDS011;9641;51.494;6.670;2023-07-20T04:19:03;16.80;;;12.53;;
19016;SDS011;9641;51.494;6.670;2023-07-20T04:21:32;16.80;;;12.67;;
19016;SDS011;9641;51.494;6.670;2023-07-20T04:23:59;17.60;;;12.43;;
19016;SDS011;9641;51.494;6.670;2023-07-20T04:26:26;16.90;;;13.67;;
19016;SDS011;9641;51.494;6.670;2023-07-20T04:28:53;17.67;;;12.20;;
19016;SDS011;9641;51.494;6.670;2023-07-20T04:31:35;20.60;;;14.63;;
19016;SDS011;9641;51.494;6.670;2023-07-20T04:34:03;18.00;;;13.93;;
19016;SDS011;9641;51.494;6.670;2023-07-20T04:36:35;20.37;;;14.07;;
19016;SDS011;9641;51.494;6.670;2023-07-20T04:39:03;18.47;;;13.87;;
19016;SDS011;9641;51.494;6.670;2023-07-20T04:41:38;14.80;;;11.47;;
19016;SDS011;9641;51.494;6.670;2023-07-20T04:44:05;16.33;;;12.53;;
19016;SDS011;9641;51.494;6.670;2023-07-20T04:46:32;14.43;;;11.23;;
19016;SDS011;9641;51.494;6.670;2023-07-20T04:49:01;14.50;;;11.30;;
19016;SDS011;9641;51.494;6.670;2023-07-20T04:51:30;16.50;;;11.30;;
19016;SDS011;9641;51.494;6.670;2023-07-20T04:53:58;14.70;;;10.67;;
19016;SDS011;9641;51.494;6.670;2023-07-20T04:56:30;13.67;;;10.60;;
19016;SDS011;9641;51.494;6.670;2023-07-20T04:58:57;15.80;;;10.03;;
19016;SDS011;9641;51.494;6.670;2023-07-20T05:01:24;13.37;;;10.70;;
19016;SDS011;9641;51.494;6.670;2023-07-20T05:03:51;12.90;;;10.10;;
19016;SDS011;9641;51.494;6.670;2023-07-20T05:06:19;11.57;;;8.97;;
19016;SDS011;9641;51.494;6.670;2023-07-20T05:08:46;13.77;;;10.30;;
19016;SDS011;9641;51.494;6.670;2023-07-20T05:11:14;12.50;;;9.60;;
19016;SDS011;9641;51.494;6.670;2023-07-20T05:13:41;12.83;;;9.47;;
19016;SDS011;9641;51.494;6.670;2023-07-20T05:16:08;12.10;;;8.53;;
19016;SDS011;9641;51.494;6.670;2023-07-20T05:18:35;9.40;;;7.33;;
19016;SDS011;9641;51.494;6.670;2023-07-20T05:21:03;9.97;;;7.87;;
19016;SDS011;9641;51.494;6.670;2023-07-20T05:23:29;8.97;;;6.67;;
19016;SDS011;9641;51.494;6.670;2023-07-20T05:25:56;6.47;;;5.33;;
19016;SDS011;9641;51.494;6.670;2023-07-20T05:28:26;5.90;;;5.30;;
19016;SDS011;9641;51.494;6.670;2023-07-20T05:30:53;5.20;;;4.73;;
19016;SDS011;9641;51.494;6.670;2023-07-20T05:33:20;5.10;;;4.60;;
19016;SDS011;9641;51.494;6.670;2023-07-20T05:35:47;5.20;;;4.70;;
19016;SDS011;9641;51.494;6.670;2023-07-20T05:38:14;4.83;;;4.33;;
19016;SDS011;9641;51.494;6.670;2023-07-20T05:40:41;7.97;;;5.70;;
19016;SDS011;9641;51.494;6.670;2023-07-20T05:43:10;5.83;;;5.27;;
19016;SDS011;9641;51.494;6.670;2023-07-20T05:45:38;7.60;;;5.07;;
19016;SDS011;9641;51.494;6.670;2023-07-20T05:48:08;5.30;;;4.80;;
19016;SDS011;9641;51.494;6.670;2023-07-20T05:50:36;4.80;;;4.33;;
19016;SDS011;9641;51.494;6.670;2023-07-20T05:53:03;7.97;;;5.07;;
19016;SDS011;9641;51.494;6.670;2023-07-20T05:55:31;5.60;;;5.03;;
19016;SDS011;9641;51.494;6.670;2023-07-20T05:57:58;5.37;;;4.87;;
19016;SDS011;9641;51.494;6.670;2023-07-20T06:00:25;5.80;;;5.20;;
19016;SDS011;9641;51.494;6.670;2023-07-20T06:02:53;4.57;;;4.17;;
19016;SDS011;9641;51.494;6.670;2023-07-20T06:05:20;4.90;;;3.93;;
19016;SDS011;9641;51.494;6.670;2023-07-20T06:07:48;4.50;;;4.10;;
19016;SDS011;9641;51.494;6.670;2023-07-20T06:10:15;4.37;;;3.93;;
19016;SDS011;9641;51.494;6.670;2023-07-20T06:12:42;4.10;;;3.80;;
19016;SDS011;9641;51.494;6.670;2023-07-20T06:15:23;4.77;;;4.03;;
19016;SDS011;9641;51.494;6.670;2023-07-20T06:17:53;4.63;;;4.23;;
19016;SDS011;9641;51.494;6.670;2023-07-20T06:20:21;5.50;;;5.00;;
19016;SDS011;9641;51.494;6.670;2023-07-20T06:22:48;6.67;;;5.27;;
19016;SDS011;9641;51.494;6.670;2023-07-20T06:25:14;10.33;;;5.77;;
19016;SDS011;9641;51.494;6.670;2023-07-20T06:27:42;6.37;;;5.77;;
19016;SDS011;9641;51.494;6.670;2023-07-20T06:30:09;6.00;;;5.40;;
19016;SDS011;9641;51.494;6.670;2023-07-20T06:32:37;6.27;;;5.67;;
19016;SDS011;9641;51.494;6.670;2023-07-20T06:35:06;7.13;;;6.50;;
19016;SDS011;9641;51.494;6.670;2023-07-20T06:37:33;5.53;;;5.03;;
19016;SDS011;9641;51.494;6.670;2023-07-20T06:40:01;5.73;;;5.20;;
19016;SDS011;9641;51.494;6.670;2023-07-20T06:42:28;5.00;;;4.60;;
19016;SDS011;9641;51.494;6.670;2023-07-20T06:44:56;6.30;;;4.70;;
19016;SDS011;9641;51.494;6.670;2023-07-20T06:47:23;4.83;;;4.43;;
19016;SDS011;9641;51.494;6.670;2023-07-20T06:49:50;4.67;;;4.30;;
19016;SDS011;9641;51.494;6.670;2023-07-20T06:52:18;4.83;;;4.47;;
19016;SDS011;9641;51.494;6.670;2023-07-20T06:54:45;4.40;;;3.90;;
19016;SDS011;9641;51.494;6.670;2023-07-20T06:57:18;6.33;;;3.97;;
19016;SDS011;9641;51.494;6.670;2023-07-20T06:59:49;4.03;;;3.63;;
19016;SDS011;9641;51.494;6.670;2023-07-20T07:02:35;3.77;;;3.47;;
19016;SDS011;9641;51.494;6.670;2023-07-20T07:05:06;3.70;;;3.13;;
19016;SDS011;9641;51.494;6.670;2023-07-20T07:07:38;3.70;;;3.40;;
19016;SDS011;9641;51.494;6.670;2023-07-20T07:10:05;3.77;;;3.30;;
19016;SDS011;9641;51.494;6.670;2023-07-20T07:12:33;3.00;;;2.80;;
19016;SDS011;9641;51.494;6.670;2023-07-20T07:15:00;3.63;;;3.43;;
19016;SDS011;9641;51.494;6.670;2023-07-20T07:17:27;3.77;;;3.30;;
19016;SDS011;9641;51.494;6.670;2023-07-20T07:19:54;3.50;;;3.20;;
19016;SDS011;9641;51.494;6.670;2023-07-20T07:22:21;4.93;;;3.57;;
19016;SDS011;9641;51.494;6.670;2023-07-20T07:24:49;4.30;;;4.00;;
19016;SDS011;9641;51.494;6.670;2023-07-20T07:27:16;4.07;;;3.87;;
19016;SDS011;9641;51.494;6.670;2023-07-20T07:29:44;3.67;;;3.47;;
19016;SDS011;9641;51.494;6.670;2023-07-20T07:32:11;4.50;;;4.03;;
19016;SDS011;9641;51.494;6.670;2023-07-20T07:34:40;4.57;;;3.90;;
19016;SDS011;9641;51.494;6.670;2023-07-20T07:37:07;3.93;;;3.70;;
19016;SDS011;9641;51.494;6.670;2023-07-20T07:39:34;3.80;;;3.50;;
19016;SDS011;9641;51.494;6.670;2023-07-20T07:42:02;3.90;;;3.40;;
19016;SDS011;9641;51.494;6.670;2023-07-20T07:44:29;3.30;;;3.10;;
19016;SDS011;9641;51.494;6.670;2023-07-20T07:46:56;3.83;;;3.50;;
19016;SDS011;9641;51.494;6.670;2023-07-20T07:49:23;2.77;;;2.67;;
19016;SDS011;9641;51.494;6.670;2023-07-20T07:51:49;2.33;;;2.23;;
19016;SDS011;9641;51.494;6.670;2023-07-20T07:54:16;2.97;;;2.77;;
19016;SDS011;9641;51.494;6.670;2023-07-20T07:56:43;2.77;;;2.57;;
19016;SDS011;9641;51.494;6.670;2023-07-20T07:59:11;3.53;;;2.97;;
19016;SDS011;9641;51.494;6.670;2023-07-20T08:01:38;3.73;;;3.53;;
19016;SDS011;9641;51.494;6.670;2023-07-20T08:04:05;3.10;;;2.90;;
19016;SDS011;9641;51.494;6.670;2023-07-20T08:06:33;3.50;;;3.30;;
19016;SDS011;9641;51.494;6.670;2023-07-20T08:09:00;3.00;;;2.80;;
19016;SDS011;9641;51.494;6.670;2023-07-20T08:11:28;2.47;;;2.30;;
19016;SDS011;9641;51.494;6.670;2023-07-20T08:13:55;2.38;;;2.17;;
19016;SDS011;9641;51.494;6.670;2023-07-20T08:16:24;1.90;;;1.80;;
19016;SDS011;9641;51.494;6.670;2023-07-20T08:18:51;3.43;;;2.27;;
19016;SDS011;9641;51.494;6.670;2023-07-20T08:21:18;2.20;;;2.00;;
19016;SDS011;9641;51.494;6.670;2023-07-20T08:23:45;2.47;;;1.60;;
19016;SDS011;9641;51.494;6.670;2023-07-20T08:26:12;2.20;;;2.00;;
19016;SDS011;9641;51.494;6.670;2023-07-20T08:28:39;1.50;;;1.50;;
19016;SDS011;9641;51.494;6.670;2023-07-20T08:31:06;1.60;;;1.50;;
19016;SDS011;9641;51.494;6.670;2023-07-20T08:33:34;2.63;;;1.50;;
19016;SDS011;9641;51.494;6.670;2023-07-20T08:36:01;1.50;;;1.40;;
19016;SDS011;9641;51.494;6.670;2023-07-20T08:38:29;2.23;;;1.40;;
19016;SDS011;9641;51.494;6.670;2023-07-20T08:40:55;1.50;;;1.40;;
19016;SDS011;9641;51.494;6.670;2023-07-20T08:43:25;3.03;;;1.63;;
19016;SDS011;9641;51.494;6.670;2023-07-20T08:45:54;1.90;;;1.70;;
19016;SDS011;9641;51.494;6.670;2023-07-20T08:48:21;1.65;;;1.55;;
19016;SDS011;9641;51.494;6.670;2023-07-20T08:50:50;1.90;;;1.40;;
19016;SDS011;9641;51.494;6.670;2023-07-20T08:53:18;2.13;;;1.35;;
19016;SDS011;9641;51.494;6.670;2023-07-20T08:55:45;1.50;;;1.40;;
19016;SDS011;9641;51.494;6.670;2023-07-20T08:58:17;2.70;;;1.43;;
19016;SDS011;9641;51.494;6.670;2023-07-20T09:00:44;1.23;;;1.20;;
19016;SDS011;9641;51.494;6.670;2023-07-20T09:03:11;1.17;;;1.17;;
19016;SDS011;9641;51.494;6.670;2023-07-20T09:05:38;1.50;;;1.40;;
19016;SDS011;9641;51.494;6.670;2023-07-20T09:08:07;1.40;;;1.30;;
19016;SDS011;9641;51.494;6.670;2023-07-20T09:10:34;1.35;;;1.25;;
19016;SDS011;9641;51.494;6.670;2023-07-20T09:13:01;1.23;;;1.20;;
19016;SDS011;9641;51.494;6.670;2023-07-20T09:15:28;1.33;;;1.30;;
19016;SDS011;9641;51.494;6.670;2023-07-20T09:17:55;1.58;;;1.48;;
19016;SDS011;9641;51.494;6.670;2023-07-20T09:20:22;1.90;;;1.80;;
19016;SDS011;9641;51.494;6.670;2023-07-20T09:22:50;2.30;;;1.63;;
19016;SDS011;9641;51.494;6.670;2023-07-20T09:25:19;2.10;;;2.00;;
19016;SDS011;9641;51.494;6.670;2023-07-20T09:27:46;2.55;;;2.05;;
19016;SDS011;9641;51.494;6.670;2023-07-20T09:30:14;1.87;;;1.77;;
19016;SDS011;9641;51.494;6.670;2023-07-20T09:32:42;3.85;;;1.80;;
19016;SDS011;9641;51.494;6.670;2023-07-20T09:35:14;2.00;;;1.90;;
19016;SDS011;9641;51.494;6.670;2023-07-20T09:37:49;2.55;;;2.03;;
19016;SDS011;9641;51.494;6.670;2023-07-20T09:40:19;2.80;;;2.00;;
19016;SDS011;9641;51.494;6.670;2023-07-20T09:42:48;2.03;;;1.90;;
19016;SDS011;9641;51.494;6.670;2023-07-20T09:45:27;3.70;;;2.05;;
19016;SDS011;9641;51.494;6.670;2023-07-20T09:48:01;1.77;;;1.55;;
19016;SDS011;9641;51.494;6.670;2023-07-20T09:50:30;1.40;;;1.30;;
19016;SDS011;9641;51.494;6.670;2023-07-20T09:52:57;1.20;;;1.10;;
19016;SDS011;9641;51.494;6.670;2023-07-20T09:55:28;1.30;;;1.30;;
19016;SDS011;9641;51.494;6.670;2023-07-20T09:57:56;1.20;;;1.20;;
19016;SDS011;9641;51.494;6.670;2023-07-20T10:00:23;1.00;;;1.00;;
19016;SDS011;9641;51.494;6.670;2023-07-20T10:02:50;1.85;;;1.40;;
19016;SDS011;9641;51.494;6.670;2023-07-20T10:05:18;0.90;;;0.90;;
19016;SDS011;9641;51.494;6.670;2023-07-20T10:07:47;2.10;;;0.93;;
19016;SDS011;9641;51.494;6.670;2023-07-20T10:10:16;1.40;;;1.30;;
19016;SDS011;9641;51.494;6.670;2023-07-20T10:12:46;1.00;;;1.00;;
19016;SDS011;9641;51.494;6.670;2023-07-20T10:15:16;1.05;;;1.02;;
19016;SDS011;9641;51.494;6.670;2023-07-20T10:17:48;1.08;;;1.00;;
19016;SDS011;9641;51.494;6.670;2023-07-20T10:20:23;3.60;;;1.40;;
19016;SDS011;9641;51.494;6.670;2023-07-20T10:22:53;1.33;;;1.20;;
19016;SDS011;9641;51.494;6.670;2023-07-20T10:25:22;1.75;;;1.45;;
19016;SDS011;9641;51.494;6.670;2023-07-20T10:27:51;1.50;;;1.40;;
19016;SDS011;9641;51.494;6.670;2023-07-20T10:30:18;2.05;;;1.50;;
19016;SDS011;9641;51.494;6.670;2023-07-20T10:32:46;2.53;;;1.10;;
19016;SDS011;9641;51.494;6.670;2023-07-20T10:35:15;5.72;;;1.52;;
19016;SDS011;9641;51.494;6.670;2023-07-20T10:37:46;1.33;;;1.30;;
19016;SDS011;9641;51.494;6.670;2023-07-20T10:40:24;1.45;;;1.35;;
19016;SDS011;9641;51.494;6.670;2023-07-20T10:42:57;1.10;;;1.00;;
19016;SDS011;9641;51.494;6.670;2023-07-20T10:45:41;1.00;;;1.00;;
19016;SDS011;9641;51.494;6.670;2023-07-20T10:48:13;1.20;;;1.10;;
19016;SDS011;9641;51.494;6.670;2023-07-20T10:50:41;1.27;;;1.13;;
19016;SDS011;9641;51.494;6.670;2023-07-20T10:53:11;1.00;;;1.00;;
19016;SDS011;9641;51.494;6.670;2023-07-20T10:55:39;0.93;;;0.90;;
19016;SDS011;9641;51.494;6.670;2023-07-20T10:58:08;1.85;;;1.33;;
19016;SDS011;9641;51.494;6.670;2023-07-20T11:00:36;2.15;;;1.05;;
19016;SDS011;9641;51.494;6.670;2023-07-20T11:03:04;1.05;;;1.05;;
19016;SDS011;9641;51.494;6.670;2023-07-20T11:05:37;1.30;;;1.20;;
19016;SDS011;9641;51.494;6.670;2023-07-20T11:08:06;1.15;;;1.10;;
19016;SDS011;9641;51.494;6.670;2023-07-20T11:10:36;4.65;;;1.20;;
19016;SDS011;9641;51.494;6.670;2023-07-20T11:13:23;1.00;;;1.00;;
19016;SDS011;9641;51.494;6.670;2023-07-20T11:16:03;1.48;;;1.30;;
19016;SDS011;9641;51.494;6.670;2023-07-20T11:18:32;1.40;;;1.30;;
19016;SDS011;9641;51.494;6.670;2023-07-20T11:21:06;2.45;;;1.98;;
19016;SDS011;9641;51.494;6.670;2023-07-20T11:23:37;1.50;;;1.40;;
19016;SDS011;9641;51.494;6.670;2023-07-20T11:26:05;1.13;;;1.13;;
19016;SDS011;9641;51.494;6.670;2023-07-20T11:28:35;1.00;;;1.00;;
19016;SDS011;9641;51.494;6.670;2023-07-20T11:31:02;1.30;;;1.25;;
19016;SDS011;9641;51.494;6.670;2023-07-20T11:33:28;1.15;;;1.10;;
19016;SDS011;9641;51.494;6.670;2023-07-20T11:35:56;5.15;;;0.90;;
19016;SDS011;9641;51.494;6.670;2023-07-20T11:38:23;0.88;;;0.85;;
19016;SDS011;9641;51.494;6.670;2023-07-20T11:40:50;0.82;;;0.82;;
19016;SDS011;9641;51.494;6.670;2023-07-20T11:43:17;0.98;;;0.98;;
19016;SDS011;9641;51.494;6.670;2023-07-20T11:45:47;1.15;;;1.00;;
19016;SDS011;9641;51.494;6.670;2023-07-20T11:48:15;1.35;;;0.98;;
19016;SDS011;9641;51.494;6.670;2023-07-20T11:50:42;1.10;;;1.00;;
19016;SDS011;9641;51.494;6.670;2023-07-20T11:53:09;1.00;;;1.00;;
19016;SDS011;9641;51.494;6.670;2023-07-20T11:55:36;0.93;;;0.90;;
19016;SDS011;9641;51.494;6.670;2023-07-20T11:58:04;1.38;;;1.20;;
19016;SDS011;9641;51.494;6.670;2023-07-20T12:00:32;2.45;;;1.10;;
19016;SDS011;9641;51.494;6.670;2023-07-20T12:03:01;1.35;;;1.10;;
19016;SDS011;9641;51.494;6.670;2023-07-20T12:05:31;0.90;;;0.90;;
19016;SDS011;9641;51.494;6.670;2023-07-20T12:07:58;1.00;;;1.00;;
19016;SDS011;9641;51.494;6.670;2023-07-20T12:10:27;1.30;;;1.15;;
19016;SDS011;9641;51.494;6.670;2023-07-20T12:13:00;1.10;;;1.00;;
19016;SDS011;9641;51.494;6.670;2023-07-20T12:15:27;0.90;;;0.90;;
19016;SDS011;9641;51.494;6.670;2023-07-20T12:17:55;1.17;;;1.02;;
19016;SDS011;9641;51.494;6.670;2023-07-20T12:20:29;1.20;;;1.10;;
19016;SDS011;9641;51.494;6.670;2023-07-20T12:22:57;2.63;;;1.20;;
19016;SDS011;9641;51.494;6.670;2023-07-20T12:25:32;0.80;;;0.80;;
19016;SDS011;9641;51.494;6.670;2023-07-20T12:28:00;0.98;;;0.98;;
19016;SDS011;9641;51.494;6.670;2023-07-20T12:30:28;0.90;;;0.90;;
19016;SDS011;9641;51.494;6.670;2023-07-20T12:32:55;1.75;;;0.80;;
19016;SDS011;9641;51.494;6.670;2023-07-20T12:35:22;1.70;;;1.20;;
19016;SDS011;9641;51.494;6.670;2023-07-20T12:37:51;0.90;;;0.90;;
19016;SDS011;9641;51.494;6.670;2023-07-20T12:40:18;1.20;;;0.90;;
19016;SDS011;9641;51.494;6.670;2023-07-20T12:42:46;0.90;;;0.90;;
19016;SDS011;9641;51.494;6.670;2023-07-20T12:45:13;0.70;;;0.70;;
19016;SDS011;9641;51.494;6.670;2023-07-20T12:47:40;1.13;;;1.00;;
19016;SDS011;9641;51.494;6.670;2023-07-20T12:50:07;2.40;;;1.10;;
19016;SDS011;9641;51.494;6.670;2023-07-20T12:52:35;1.90;;;1.10;;
19016;SDS011;9641;51.494;6.670;2023-07-20T12:55:06;0.82;;;0.80;;
19016;SDS011;9641;51.494;6.670;2023-07-20T12:57:34;0.90;;;0.90;;
19016;SDS011;9641;51.494;6.670;2023-07-20T13:00:01;0.95;;;0.95;;
19016;SDS011;9641;51.494;6.670;2023-07-20T13:02:29;1.10;;;0.85;;
19016;SDS011;9641;51.494;6.670;2023-07-20T13:04:57;2.22;;;0.88;;
19016;SDS011;9641;51.494;6.670;2023-07-20T13:07:30;2.05;;;0.90;;
19016;SDS011;9641;51.494;6.670;2023-07-20T13:09:59;0.90;;;0.77;;
19016;SDS011;9641;51.494;6.670;2023-07-20T13:12:28;0.85;;;0.85;;
19016;SDS011;9641;51.494;6.670;2023-07-20T13:14:56;1.00;;;0.90;;
19016;SDS011;9641;51.494;6.670;2023-07-20T13:17:25;1.85;;;0.82;;
19016;SDS011;9641;51.494;6.670;2023-07-20T13:19:52;0.90;;;0.90;;
19016;SDS011;9641;51.494;6.670;2023-07-20T13:22:20;0.70;;;0.70;;
19016;SDS011;9641;51.494;6.670;2023-07-20T13:24:48;0.80;;;0.77;;
19016;SDS011;9641;51.494;6.670;2023-07-20T13:27:15;1.75;;;0.90;;
19016;SDS011;9641;51.494;6.670;2023-07-20T13:29:43;0.77;;;0.77;;
19016;SDS011;9641;51.494;6.670;2023-07-20T13:32:12;1.75;;;0.85;;
19016;SDS011;9641;51.494;6.670;2023-07-20T13:34:40;2.58;;;0.80;;
19016;SDS011;9641;51.494;6.670;2023-07-20T13:37:07;0.85;;;0.85;;
19016;SDS011;9641;51.494;6.670;2023-07-20T13:39:35;1.00;;;1.00;;
19016;SDS011;9641;51.494;6.670;2023-07-20T13:42:02;1.50;;;1.10;;
19016;SDS011;9641;51.494;6.670;2023-07-20T13:44:31;0.77;;;0.77;;
19016;SDS011;9641;51.494;6.670;2023-07-20T13:47:03;0.70;;;0.70;;
19016;SDS011;9641;51.494;6.670;2023-07-20T13:49:31;1.75;;;0.70;;
19016;SDS011;9641;51.494;6.670;2023-07-20T13:51:58;0.75;;;0.75;;
19016;SDS011;9641;51.494;6.670;2023-07-20T13:54:27;1.00;;;1.00;;
19016;SDS011;9641;51.494;6.670;2023-07-20T13:56:54;0.90;;;0.90;;
19016;SDS011;9641;51.494;6.670;2023-07-20T13:59:21;1.02;;;0.93;;
19016;SDS011;9641;51.494;6.670;2023-07-20T14:01:49;0.98;;;0.90;;
19016;SDS011;9641;51.494;6.670;2023-07-20T14:04:17;0.70;;;0.70;;
19016;SDS011;9641;51.494;6.670;2023-07-20T14:06:44;0.80;;;0.77;;
19016;SDS011;9641;51.494;6.670;2023-07-20T14:09:12;1.52;;;0.85;;
19016;SDS011;9641;51.494;6.670;2023-07-20T14:11:39;2.05;;;0.80;;
19016;SDS011;9641;51.494;6.670;2023-07-20T14:14:06;1.38;;;0.95;;
19016;SDS011;9641;51.494;6.670;2023-07-20T14:16:35;1.15;;;0.80;;
19016;SDS011;9641;51.494;6.670;2023-07-20T14:19:02;2.05;;;0.90;;
19016;SDS011;9641;51.494;6.670;2023-07-20T14:21:33;1.00;;;1.00;;
19016;SDS011;9641;51.494;6.670;2023-07-20T14:24:01;1.58;;;0.80;;
19016;SDS011;9641;51.494;6.670;2023-07-20T14:26:28;0.82;;;0.82;;
19016;SDS011;9641;51.494;6.670;2023-07-20T14:28:55;0.80;;;0.80;;
19016;SDS011;9641;51.494;6.670;2023-07-20T14:31:22;1.98;;;1.00;;
19016;SDS011;9641;51.494;6.670;2023-07-20T14:33:49;0.90;;;0.90;;
19016;SDS011;9641;51.494;6.670;2023-07-20T14:36:16;1.77;;;0.73;;
19016;SDS011;9641;51.494;6.670;2023-07-20T14:38:46;0.82;;;0.80;;
19016;SDS011;9641;51.494;6.670;2023-07-20T14:41:13;0.85;;;0.85;;
19016;SDS011;9641;51.494;6.670;2023-07-20T14:43:40;2.05;;;0.90;;
19016;SDS011;9641;51.494;6.670;2023-07-20T14:46:07;0.90;;;0.90;;
19016;SDS011;9641;51.494;6.670;2023-07-20T14:48:36;1.00;;;0.68;;
19016;SDS011;9641;51.494;6.670;2023-07-20T14:51:03;1.23;;;0.80;;
19016;SDS011;9641;51.494;6.670;2023-07-20T14:53:30;0.98;;;0.98;;
19016;SDS011;9641;51.494;6.670;2023-07-20T14:56:01;2.30;;;1.02;;
19016;SDS011;9641;51.494;6.670;2023-07-20T14:58:29;0.93;;;0.93;;
19016;SDS011;9641;51.494;6.670;2023-07-20T15:00:56;0.80;;;0.80;;
19016;SDS011;9641;51.494;6.670;2023-07-20T15:03:23;1.88;;;0.90;;
19016;SDS011;9641;51.494;6.670;2023-07-20T15:05:50;1.63;;;0.90;;